EWG7JF EDDL-ESSA
Flight info
| Callsign | EWG7JF |
|---|---|
| Flight time | N/A |
| Altitude | 39000 |
| Route | MEVEL L179 OSNAD M170 BASUM DCT HAM DCT GIMRU DCT MIKNA N851 PELUP Z226 NILUG |
| Aircraft | A320/M-SDE3FGHIRWY/LB1 |
Departure
| Time | N/A |
|---|---|
| Airport | Düsseldorf Airport (EDDL) |
Arrival
| Time | 2026-05-04 15:19 |
|---|---|
| Airport | Stockholm-Arlanda Airport (ESSA) |
| Time | Latitude | Longitude | Altitude | Speed | Heading |
|---|---|---|---|---|---|
| 2026-05-04 14:02 | 52.90003 | 8.98176 | 38993 ft | 481 kts | 40° |
| 2026-05-04 14:03 | 52.92474 | 9.01924 | 38990 ft | 481 kts | 40° |
| 2026-05-04 14:03 | 52.97398 | 9.09422 | 38991 ft | 480 kts | 40° |
| 2026-05-04 14:04 | 53.04760 | 9.20673 | 38986 ft | 478 kts | 40° |
| 2026-05-04 14:04 | 53.09655 | 9.28168 | 38993 ft | 479 kts | 40° |
| 2026-05-04 14:05 | 53.16782 | 9.39157 | 38997 ft | 478 kts | 40° |
| 2026-05-04 14:06 | 53.21655 | 9.46688 | 39002 ft | 478 kts | 40° |
| 2026-05-04 14:06 | 53.26551 | 9.54276 | 38980 ft | 482 kts | 40° |
| 2026-05-04 14:07 | 53.31463 | 9.61932 | 38987 ft | 483 kts | 40° |
| 2026-05-04 14:07 | 53.36377 | 9.69603 | 38993 ft | 482 kts | 40° |
| 2026-05-04 14:08 | 53.41011 | 9.76870 | 38999 ft | 482 kts | 40° |
| 2026-05-04 14:08 | 53.45740 | 9.84308 | 39007 ft | 482 kts | 40° |
| 2026-05-04 14:09 | 53.53090 | 9.95883 | 39018 ft | 483 kts | 40° |
| 2026-05-04 14:10 | 53.60398 | 10.07452 | 39024 ft | 483 kts | 41° |
| 2026-05-04 14:10 | 53.65243 | 10.15178 | 39027 ft | 483 kts | 41° |
| 2026-05-04 14:11 | 53.70287 | 10.22639 | 39022 ft | 480 kts | 33° |
| 2026-05-04 14:11 | 53.78373 | 10.32642 | 39016 ft | 481 kts | 33° |
| 2026-05-04 14:12 | 53.83766 | 10.39335 | 39018 ft | 481 kts | 33° |
| 2026-05-04 14:13 | 53.91856 | 10.49448 | 39019 ft | 482 kts | 34° |
| 2026-05-04 14:13 | 53.97245 | 10.56207 | 39013 ft | 482 kts | 34° |
| 2026-05-04 14:14 | 54.02641 | 10.62994 | 39014 ft | 482 kts | 34° |
| 2026-05-04 14:14 | 54.10724 | 10.73209 | 39007 ft | 483 kts | 34° |
| 2026-05-04 14:15 | 54.21337 | 10.86670 | 38997 ft | 483 kts | 34° |
| 2026-05-04 14:16 | 54.29420 | 10.97012 | 38994 ft | 484 kts | 34° |
| 2026-05-04 14:17 | 54.37493 | 11.07385 | 39000 ft | 484 kts | 34° |
| 2026-05-04 14:18 | 54.45540 | 11.17773 | 39000 ft | 485 kts | 34° |
| 2026-05-04 14:19 | 54.56316 | 11.31764 | 39002 ft | 485 kts | 34° |
| 2026-05-04 14:19 | 54.61763 | 11.38616 | 39000 ft | 485 kts | 33° |
| 2026-05-04 14:20 | 54.67279 | 11.45342 | 39000 ft | 485 kts | 33° |
| 2026-05-04 14:20 | 54.72785 | 11.52100 | 38995 ft | 486 kts | 33° |
| 2026-05-04 14:21 | 54.81017 | 11.62374 | 38994 ft | 486 kts | 33° |
| 2026-05-04 14:21 | 54.86493 | 11.69256 | 38993 ft | 487 kts | 33° |
| 2026-05-04 14:22 | 54.91944 | 11.76112 | 38995 ft | 487 kts | 33° |
| 2026-05-04 14:22 | 54.97409 | 11.83001 | 38987 ft | 487 kts | 33° |
| 2026-05-04 14:23 | 55.05635 | 11.93420 | 38987 ft | 488 kts | 33° |
| 2026-05-04 14:24 | 55.11122 | 12.00401 | 38979 ft | 488 kts | 34° |
| 2026-05-04 14:24 | 55.16606 | 12.07400 | 38978 ft | 488 kts | 34° |
| 2026-05-04 14:25 | 55.22088 | 12.14428 | 38979 ft | 489 kts | 34° |
| 2026-05-04 14:25 | 55.30323 | 12.25015 | 38972 ft | 489 kts | 34° |
| 2026-05-04 14:26 | 55.35800 | 12.32099 | 38974 ft | 489 kts | 34° |
| 2026-05-04 14:26 | 55.41275 | 12.39206 | 38975 ft | 489 kts | 34° |
| 2026-05-04 14:27 | 55.46650 | 12.46307 | 38974 ft | 490 kts | 35° |
| 2026-05-04 14:27 | 55.51970 | 12.53867 | 38974 ft | 491 kts | 37° |
| 2026-05-04 14:28 | 55.57182 | 12.61533 | 38975 ft | 491 kts | 37° |
| 2026-05-04 14:28 | 55.62454 | 12.69226 | 38973 ft | 491 kts | 37° |
| 2026-05-04 14:29 | 55.73049 | 12.84548 | 38971 ft | 492 kts | 37° |
| 2026-05-04 14:30 | 55.78344 | 12.92267 | 38968 ft | 492 kts | 37° |
| 2026-05-04 14:31 | 55.86278 | 13.03883 | 38968 ft | 492 kts | 37° |
| 2026-05-04 14:32 | 55.96836 | 13.19466 | 38973 ft | 493 kts | 37° |
| 2026-05-04 14:32 | 56.02115 | 13.27304 | 38976 ft | 493 kts | 37° |
| 2026-05-04 14:33 | 56.07362 | 13.35117 | 38974 ft | 494 kts | 37° |
| 2026-05-04 14:33 | 56.12645 | 13.42989 | 38969 ft | 494 kts | 37° |
| 2026-05-04 14:34 | 56.17923 | 13.50897 | 38960 ft | 495 kts | 37° |
| 2026-05-04 14:34 | 56.23230 | 13.58768 | 38948 ft | 494 kts | 35° |
| 2026-05-04 14:35 | 56.28746 | 13.66115 | 38934 ft | 493 kts | 32° |
| 2026-05-04 14:35 | 56.34308 | 13.73340 | 38922 ft | 493 kts | 33° |
| 2026-05-04 14:36 | 56.39829 | 13.80700 | 38918 ft | 493 kts | 33° |
| 2026-05-04 14:36 | 56.45342 | 13.88104 | 38913 ft | 493 kts | 33° |
| 2026-05-04 14:37 | 56.50862 | 13.95487 | 38909 ft | 493 kts | 33° |
| 2026-05-04 14:37 | 56.55441 | 14.01633 | 38905 ft | 493 kts | 33° |
| 2026-05-04 14:38 | 56.60968 | 14.09045 | 38891 ft | 493 kts | 33° |
| 2026-05-04 14:38 | 56.66488 | 14.16471 | 38891 ft | 494 kts | 33° |
| 2026-05-04 14:39 | 56.71999 | 14.23938 | 38883 ft | 494 kts | 33° |
| 2026-05-04 14:39 | 56.77493 | 14.31441 | 38880 ft | 494 kts | 33° |
| 2026-05-04 14:40 | 56.85743 | 14.42744 | 38873 ft | 494 kts | 33° |
| 2026-05-04 14:40 | 56.91247 | 14.50294 | 38872 ft | 495 kts | 33° |
| 2026-05-04 14:41 | 56.96749 | 14.57871 | 38872 ft | 495 kts | 33° |
| 2026-05-04 14:42 | 57.07746 | 14.73101 | 38861 ft | 495 kts | 34° |
| 2026-05-04 14:42 | 57.13237 | 14.80780 | 38857 ft | 496 kts | 34° |
| 2026-05-04 14:43 | 57.18690 | 14.88417 | 38841 ft | 496 kts | 34° |
| 2026-05-04 14:43 | 57.24187 | 14.96128 | 38831 ft | 496 kts | 34° |
| 2026-05-04 14:44 | 57.29682 | 15.03889 | 38819 ft | 497 kts | 34° |
| 2026-05-04 14:44 | 57.35165 | 15.11662 | 38817 ft | 497 kts | 34° |
| 2026-05-04 14:45 | 57.40660 | 15.19469 | 38812 ft | 497 kts | 34° |
| 2026-05-04 14:45 | 57.46146 | 15.27302 | 38802 ft | 498 kts | 34° |
| 2026-05-04 14:46 | 57.51628 | 15.35148 | 38797 ft | 498 kts | 34° |
| 2026-05-04 14:46 | 57.57122 | 15.43040 | 38794 ft | 498 kts | 34° |
| 2026-05-04 14:47 | 57.62569 | 15.50910 | 38789 ft | 499 kts | 34° |
| 2026-05-04 14:47 | 57.68052 | 15.58858 | 38784 ft | 499 kts | 34° |
| 2026-05-04 14:48 | 57.73536 | 15.66826 | 38773 ft | 499 kts | 34° |
| 2026-05-04 14:48 | 57.79000 | 15.74817 | 38616 ft | 495 kts | 34° |
| 2026-05-04 14:49 | 57.81702 | 15.78781 | 38202 ft | 491 kts | 34° |
| 2026-05-04 14:49 | 57.84386 | 15.82727 | 37739 ft | 489 kts | 34° |
| 2026-05-04 14:49 | 57.87061 | 15.86663 | 37280 ft | 488 kts | 34° |
| 2026-05-04 14:49 | 57.89726 | 15.90591 | 36837 ft | 487 kts | 34° |
| 2026-05-04 14:50 | 57.92386 | 15.94518 | 36390 ft | 486 kts | 34° |
| 2026-05-04 14:50 | 57.95043 | 15.98452 | 35961 ft | 485 kts | 34° |
| 2026-05-04 14:50 | 57.97693 | 16.02385 | 35537 ft | 484 kts | 34° |
| 2026-05-04 14:50 | 58.00337 | 16.06314 | 35075 ft | 484 kts | 34° |
| 2026-05-04 14:51 | 58.02979 | 16.10245 | 34579 ft | 483 kts | 33° |
| 2026-05-04 14:51 | 58.05608 | 16.14166 | 34087 ft | 482 kts | 33° |
| 2026-05-04 14:51 | 58.08238 | 16.18093 | 33579 ft | 481 kts | 33° |
| 2026-05-04 14:51 | 58.10858 | 16.22017 | 33007 ft | 481 kts | 33° |
| 2026-05-04 14:52 | 58.13477 | 16.25946 | 32445 ft | 481 kts | 33° |
| 2026-05-04 14:52 | 58.16102 | 16.29892 | 31893 ft | 482 kts | 33° |
| 2026-05-04 14:52 | 58.18724 | 16.33844 | 31349 ft | 481 kts | 33° |
| 2026-05-04 14:52 | 58.21336 | 16.37791 | 30822 ft | 478 kts | 33° |
| 2026-05-04 14:53 | 58.23924 | 16.41704 | 30280 ft | 474 kts | 33° |
| 2026-05-04 14:53 | 58.26493 | 16.45594 | 29739 ft | 470 kts | 33° |
| 2026-05-04 14:53 | 58.29040 | 16.49449 | 29103 ft | 466 kts | 33° |
| 2026-05-04 14:53 | 58.31566 | 16.53283 | 28492 ft | 463 kts | 33° |
| 2026-05-04 14:54 | 58.34072 | 16.57100 | 27935 ft | 460 kts | 33° |
| 2026-05-04 14:54 | 58.36559 | 16.60905 | 27393 ft | 458 kts | 33° |
| 2026-05-04 14:54 | 58.39038 | 16.64700 | 26868 ft | 455 kts | 33° |
| 2026-05-04 14:54 | 58.41499 | 16.68472 | 26345 ft | 453 kts | 33° |
| 2026-05-04 14:55 | 58.43949 | 16.72231 | 25835 ft | 451 kts | 33° |
| 2026-05-04 14:55 | 58.46388 | 16.75980 | 25333 ft | 449 kts | 33° |
| 2026-05-04 14:55 | 58.48816 | 16.79714 | 24839 ft | 447 kts | 33° |
| 2026-05-04 14:55 | 58.51235 | 16.83440 | 24314 ft | 445 kts | 34° |
| 2026-05-04 14:56 | 58.53602 | 16.87100 | 23807 ft | 441 kts | 34° |
| 2026-05-04 14:56 | 58.55971 | 16.90765 | 23342 ft | 436 kts | 34° |
| 2026-05-04 14:56 | 58.58326 | 16.94412 | 22805 ft | 433 kts | 34° |
| 2026-05-04 14:56 | 58.60659 | 16.98033 | 22251 ft | 430 kts | 34° |
| 2026-05-04 14:57 | 58.62977 | 17.01644 | 21731 ft | 426 kts | 34° |
| 2026-05-04 14:57 | 58.65268 | 17.05225 | 21280 ft | 423 kts | 34° |
| 2026-05-04 14:57 | 58.67543 | 17.08786 | 20837 ft | 420 kts | 34° |
| 2026-05-04 14:57 | 58.69799 | 17.12320 | 20398 ft | 417 kts | 34° |
| 2026-05-04 14:58 | 58.72042 | 17.15833 | 19970 ft | 415 kts | 34° |
| 2026-05-04 14:58 | 58.74276 | 17.19335 | 19566 ft | 412 kts | 34° |
| 2026-05-04 14:58 | 58.76492 | 17.22813 | 19170 ft | 410 kts | 34° |
| 2026-05-04 14:58 | 58.78690 | 17.26274 | 18782 ft | 407 kts | 34° |
| 2026-05-04 14:59 | 58.80874 | 17.29721 | 18398 ft | 405 kts | 34° |
| 2026-05-04 14:59 | 58.83049 | 17.33162 | 18012 ft | 403 kts | 34° |
| 2026-05-04 14:59 | 58.87328 | 17.39942 | 17169 ft | 398 kts | 34° |
| 2026-05-04 15:00 | 58.89459 | 17.43328 | 16774 ft | 395 kts | 34° |
| 2026-05-04 15:00 | 58.91577 | 17.46703 | 16374 ft | 393 kts | 34° |
| 2026-05-04 15:00 | 58.93699 | 17.50000 | 15979 ft | 388 kts | 30° |
| 2026-05-04 15:01 | 58.98250 | 17.55387 | 15217 ft | 381 kts | 25° |
| 2026-05-04 15:01 | 59.00519 | 17.58022 | 14833 ft | 379 kts | 25° |
| 2026-05-04 15:01 | 59.02770 | 17.60646 | 14465 ft | 377 kts | 25° |
| 2026-05-04 15:01 | 59.05002 | 17.63252 | 14098 ft | 373 kts | 25° |
| 2026-05-04 15:02 | 59.07209 | 17.65834 | 13735 ft | 368 kts | 25° |
| 2026-05-04 15:02 | 59.09394 | 17.68389 | 13346 ft | 364 kts | 25° |
| 2026-05-04 15:02 | 59.11554 | 17.70910 | 12920 ft | 361 kts | 25° |
| 2026-05-04 15:02 | 59.13698 | 17.73418 | 12495 ft | 358 kts | 25° |
| 2026-05-04 15:03 | 59.15817 | 17.75907 | 12074 ft | 354 kts | 25° |
| 2026-05-04 15:03 | 59.17913 | 17.78370 | 11686 ft | 350 kts | 25° |
| 2026-05-04 15:03 | 59.19990 | 17.80815 | 11332 ft | 344 kts | 25° |
| 2026-05-04 15:03 | 59.21986 | 17.83176 | 10971 ft | 328 kts | 25° |
| 2026-05-04 15:04 | 59.23891 | 17.85432 | 10624 ft | 313 kts | 25° |
| 2026-05-04 15:04 | 59.25707 | 17.87581 | 10296 ft | 298 kts | 24° |
| 2026-05-04 15:04 | 59.27441 | 17.89631 | 10014 ft | 294 kts | 24° |
| 2026-05-04 15:04 | 59.29184 | 17.91683 | 9743 ft | 291 kts | 24° |
| 2026-05-04 15:05 | 59.30906 | 17.93718 | 9463 ft | 287 kts | 25° |
| 2026-05-04 15:05 | 59.32607 | 17.95733 | 9183 ft | 285 kts | 25° |
| 2026-05-04 15:06 | 59.33199 | 17.96437 | 8995 ft | 283 kts | 24° |
| 2026-05-04 15:06 | 59.34934 | 17.98523 | 8517 ft | 288 kts | 25° |
| 2026-05-04 15:07 | 59.38499 | 18.01431 | 7901 ft | 268 kts | 8° |
| 2026-05-04 15:07 | 59.40252 | 18.02361 | 7694 ft | 256 kts | 8° |
| 2026-05-04 15:07 | 59.41975 | 18.03255 | 7704 ft | 256 kts | 8° |
| 2026-05-04 15:07 | 59.43695 | 18.04142 | 7691 ft | 256 kts | 8° |
| 2026-05-04 15:08 | 59.45416 | 18.05020 | 7701 ft | 256 kts | 8° |
| 2026-05-04 15:08 | 59.47140 | 18.05896 | 7687 ft | 255 kts | 8° |
| 2026-05-04 15:08 | 59.48819 | 18.06759 | 7697 ft | 245 kts | 8° |
| 2026-05-04 15:08 | 59.50472 | 18.07504 | 7691 ft | 243 kts | 4° |
| 2026-05-04 15:09 | 59.52130 | 18.08106 | 7671 ft | 242 kts | 3° |
| 2026-05-04 15:09 | 59.53789 | 18.08689 | 7670 ft | 242 kts | 3° |
| 2026-05-04 15:09 | 59.55445 | 18.09274 | 7675 ft | 242 kts | 3° |
| 2026-05-04 15:10 | 59.58765 | 18.10428 | 7483 ft | 244 kts | 3° |
| 2026-05-04 15:10 | 59.60425 | 18.10989 | 7103 ft | 240 kts | 3° |
| 2026-05-04 15:10 | 59.63675 | 18.12053 | 6365 ft | 232 kts | 3° |
| 2026-05-04 15:11 | 59.65253 | 18.12552 | 6019 ft | 228 kts | 3° |
| 2026-05-04 15:11 | 59.66801 | 18.13026 | 5674 ft | 223 kts | 3° |
| 2026-05-04 15:11 | 59.68321 | 18.13492 | 5337 ft | 219 kts | 3° |
| 2026-05-04 15:11 | 59.69825 | 18.13951 | 5030 ft | 220 kts | 3° |
| 2026-05-04 15:12 | 59.71349 | 18.14412 | 4721 ft | 224 kts | 3° |
| 2026-05-04 15:12 | 59.72878 | 18.14872 | 4409 ft | 226 kts | 3° |
| 2026-05-04 15:12 | 59.74436 | 18.15355 | 4057 ft | 222 kts | 3° |
| 2026-05-04 15:12 | 59.75927 | 18.15830 | 3728 ft | 219 kts | 3° |
| 2026-05-04 15:13 | 59.77398 | 18.15862 | 3394 ft | 205 kts | 336° |
| 2026-05-04 15:13 | 59.78480 | 18.14401 | 3143 ft | 179 kts | 299° |
| 2026-05-04 15:13 | 59.78916 | 18.12190 | 2928 ft | 169 kts | 280° |
| 2026-05-04 15:13 | 59.79166 | 18.09925 | 2716 ft | 167 kts | 278° |
| 2026-05-04 15:14 | 59.79392 | 18.07672 | 2570 ft | 166 kts | 278° |
| 2026-05-04 15:14 | 59.79572 | 18.05413 | 2498 ft | 164 kts | 265° |
| 2026-05-04 15:14 | 59.79176 | 18.03317 | 2498 ft | 165 kts | 239° |
| 2026-05-04 15:14 | 59.78404 | 18.01619 | 2500 ft | 169 kts | 222° |
| 2026-05-04 15:15 | 59.77363 | 18.00501 | 2501 ft | 170 kts | 204° |
| 2026-05-04 15:15 | 59.76214 | 18.00011 | 2390 ft | 168 kts | 197° |
| 2026-05-04 15:15 | 59.75088 | 17.99606 | 2223 ft | 159 kts | 197° |
| 2026-05-04 15:16 | 59.72990 | 17.98844 | 1798 ft | 145 kts | 196° |
| 2026-05-04 15:16 | 59.72016 | 17.98488 | 1613 ft | 139 kts | 197° |
| 2026-05-04 15:16 | 59.70174 | 17.97816 | 1241 ft | 132 kts | 198° |
| 2026-05-04 15:17 | 59.69257 | 17.97479 | 1053 ft | 136 kts | 196° |
| 2026-05-04 15:17 | 59.67371 | 17.96793 | 660 ft | 139 kts | 197° |
| 2026-05-04 15:17 | 59.66419 | 17.96447 | 469 ft | 139 kts | 193° |
| 2026-05-04 15:18 | 59.65480 | 17.96129 | 326 ft | 135 kts | 194° |
| 2026-05-04 15:18 | 59.64566 | 17.95783 | 127 ft | 133 kts | 196° |
| 2026-05-04 15:18 | 59.63794 | 17.95490 | 114 ft | 86 kts | 190° |
| 2026-05-04 15:19 | 59.63266 | 17.95076 | 121 ft | 9 kts | 221° |
| 2026-05-04 15:19 | 59.63249 | 17.95043 | 119 ft | 1 kts | 237° |
| 2026-05-04 15:19 | 59.63266 | 17.94917 | 121 ft | 9 kts | 328° |
| 2026-05-04 15:20 | 59.63327 | 17.94918 | 119 ft | 11 kts | 9° |
| 2026-05-04 15:20 | 59.63430 | 17.94956 | 120 ft | 17 kts | 11° |
| 2026-05-04 15:20 | 59.63551 | 17.94996 | 116 ft | 18 kts | 9° |
| 2026-05-04 15:20 | 59.63680 | 17.95045 | 112 ft | 19 kts | 11° |
| 2026-05-04 15:21 | 59.63814 | 17.95092 | 110 ft | 19 kts | 11° |
| 2026-05-04 15:21 | 59.63945 | 17.95141 | 109 ft | 19 kts | 11° |
| 2026-05-04 15:21 | 59.64200 | 17.95234 | 107 ft | 18 kts | 11° |
| 2026-05-04 15:22 | 59.64324 | 17.95280 | 106 ft | 18 kts | 10° |
| 2026-05-04 15:22 | 59.64459 | 17.95328 | 104 ft | 20 kts | 10° |
| 2026-05-04 15:22 | 59.64725 | 17.95426 | 106 ft | 18 kts | 10° |
| 2026-05-04 15:23 | 59.64841 | 17.95468 | 107 ft | 16 kts | 10° |
| 2026-05-04 15:23 | 59.64950 | 17.95508 | 111 ft | 17 kts | 10° |
| 2026-05-04 15:23 | 59.65075 | 17.95499 | 114 ft | 19 kts | 346° |
| 2026-05-04 15:23 | 59.65206 | 17.95428 | 120 ft | 19 kts | 346° |
| 2026-05-04 15:24 | 59.65469 | 17.95290 | 127 ft | 21 kts | 345° |
| 2026-05-04 15:24 | 59.65728 | 17.95132 | 125 ft | 17 kts | 319° |
| 2026-05-04 15:25 | 59.65734 | 17.94900 | 124 ft | 19 kts | 255° |
| 2026-05-04 15:25 | 59.65701 | 17.94638 | 123 ft | 20 kts | 256° |
| 2026-05-04 15:25 | 59.65667 | 17.94370 | 124 ft | 20 kts | 255° |
| 2026-05-04 15:26 | 59.65594 | 17.93772 | 114 ft | 23 kts | 257° |
| 2026-05-04 15:26 | 59.65558 | 17.93505 | 111 ft | 17 kts | 255° |
| 2026-05-04 15:26 | 59.65458 | 17.93344 | 112 ft | 15 kts | 174° |
| 2026-05-04 15:27 | 59.65356 | 17.93392 | 112 ft | 13 kts | 167° |
| 2026-05-04 15:27 | 59.65304 | 17.93485 | 112 ft | 4 kts | 72° |
| 2026-05-04 15:28 | 59.65317 | 17.93569 | 110 ft | 0 kts | 76° |